createdAt,value
2022-11-27T00:00:58.061Z,5847.108
2022-11-27T00:16:00.514Z,5495.14618
2022-11-27T00:31:03.198Z,5289.72016
2022-11-27T00:46:05.836Z,5400.7639
2022-11-27T01:01:08.454Z,5309.56902
2022-11-27T01:16:10.926Z,5452.79438
2022-11-27T01:31:13.757Z,5442.30823
2022-11-27T01:46:16.645Z,5294.66845
2022-11-27T02:01:19.205Z,5017.73102
2022-11-27T02:16:21.847Z,4879.31087
2022-11-27T02:31:24.321Z,4669.96751
2022-11-27T02:46:26.676Z,4669.96751
2022-11-27T03:01:29.178Z,4609.12104
2022-11-27T03:16:32.070Z,4748.32267
2022-11-27T03:31:34.633Z,4808.83654
2022-11-27T03:46:37.285Z,4808.83654
2022-11-27T04:01:40.019Z,4969.27182
2022-11-27T04:16:42.573Z,5221.40275
2022-11-27T04:31:45.108Z,5294.66845
2022-11-27T04:46:47.635Z,5359.84902
2022-11-27T05:01:50.267Z,5521.95176
2022-11-27T05:16:52.874Z,5479.18738
2022-11-27T05:31:55.388Z,5769.62339
2022-11-27T05:46:58.279Z,6257.60136
2022-11-27T06:02:00.780Z,6658.82401
2022-11-27T06:17:03.123Z,6881.45945
2022-11-27T06:32:05.525Z,6182.41445
2022-11-27T06:47:08.113Z,5711.40318
2022-11-27T07:02:10.610Z,5426.65442
2022-11-27T07:17:13.065Z,4995.58746
2022-11-27T07:32:15.761Z,4506.36994
2022-11-27T07:47:18.082Z,4467.24597
2022-11-27T08:02:20.343Z,4560.83855
2022-11-27T08:17:22.689Z,4669.96751
2022-11-27T08:32:25.261Z,4662.27399
2022-11-27T08:47:27.743Z,4477.84861
2022-11-27T09:02:30.184Z,4227.03561
2022-11-27T09:17:33.116Z,3860.84634
2022-11-27T09:32:35.425Z,3689.70062
2022-11-27T09:47:41.451Z,3704.18898
2022-11-27T10:02:45.001Z,3680.10452
2022-11-27T10:17:47.499Z,3623.56003
2022-11-27T10:32:56.216Z,3745.86416
2022-11-27T10:47:58.848Z,3522.09134
2022-11-27T11:03:01.375Z,3483.07741
2022-11-27T11:18:03.917Z,3426.15061
2022-11-27T11:33:06.617Z,3226.91041
2022-11-27T11:48:09.317Z,3172.64623
2022-11-27T12:03:11.785Z,3074.41656
2022-11-27T12:18:14.498Z,3389.22205
2022-11-27T12:33:17.254Z,3361.04562
2022-11-27T12:48:20.310Z,3306.07525
2022-11-27T13:03:22.852Z,3649.25904
2022-11-27T13:18:25.574Z,3735.97409
2022-11-27T13:33:28.106Z,3969.14496
2022-11-27T13:48:30.458Z,3890.03486
2022-11-27T14:03:33.222Z,3819.16379
2022-11-27T14:18:35.721Z,3345.15415
2022-11-27T14:34:13.687Z,2847.08302
2022-11-27T14:49:17.725Z,2644.86033
2022-11-27T15:04:20.685Z,2718.54039
2022-11-27T15:19:23.132Z,2763.6724
2022-11-27T15:34:25.524Z,2777.2331
2022-11-27T15:49:28.134Z,2908.53085
2022-11-27T16:04:30.795Z,3251.00566
2022-11-27T16:19:33.315Z,3313.81782
2022-11-27T16:34:35.872Z,4582.99647
2022-11-27T16:49:38.259Z,5099.09963
2022-11-27T17:04:41.103Z,6554.71964
2022-11-27T17:19:44.092Z,7916.08441
2022-11-27T17:34:46.832Z,9386.40186
2022-11-27T17:49:49.382Z,10853.30835
2022-11-27T18:04:51.735Z,12535.99179
2022-11-27T18:19:53.987Z,12535.99179
2022-11-27T18:34:56.258Z,12535.99179
2022-11-27T18:49:58.537Z,12535.99179
2022-11-27T19:05:01.546Z,12535.99179
2022-11-27T19:20:03.846Z,12535.99179
2022-11-27T19:35:07.424Z,12535.99179
2022-11-27T19:50:10.002Z,12535.99179
2022-11-27T20:05:12.215Z,12535.99179
2022-11-27T20:20:14.448Z,12535.99179
2022-11-27T20:35:16.663Z,12535.99179
2022-11-27T20:50:19.135Z,12535.99179
2022-11-27T21:05:21.411Z,12535.99179
2022-11-27T21:20:23.680Z,12535.99179
2022-11-27T21:35:30.234Z,12535.99179
2022-11-27T21:50:34.110Z,12535.99179
2022-11-27T22:05:36.372Z,12535.99179
2022-11-27T22:20:38.819Z,12535.99179
2022-11-27T22:35:41.045Z,12535.99179
2022-11-27T22:50:43.319Z,12535.99179
2022-11-27T23:05:45.691Z,12535.99179
2022-11-27T23:20:47.992Z,12535.99179
2022-11-27T23:35:49.996Z,11865.82872
2022-11-27T23:50:52.652Z,10750.238
